sensor_id;sensor_type;location;lat;lon;timestamp;pressure;altitude;pressure_sealevel;temperature;humidity
37368;BME280;23240;43.210;27.910;2023-07-31T00:01:51;100430.16;;;22.18;100.00
37368;BME280;23240;43.210;27.910;2023-07-31T00:04:16;100427.66;;;22.16;100.00
37368;BME280;23240;43.210;27.910;2023-07-31T00:06:42;100423.44;;;22.14;100.00
37368;BME280;23240;43.210;27.910;2023-07-31T00:09:07;100419.03;;;22.13;100.00
37368;BME280;23240;43.210;27.910;2023-07-31T00:11:32;100416.69;;;22.10;100.00
37368;BME280;23240;43.210;27.910;2023-07-31T00:13:58;100428.88;;;22.07;100.00
37368;BME280;23240;43.210;27.910;2023-07-31T00:16:23;100419.84;;;22.06;100.00
37368;BME280;23240;43.210;27.910;2023-07-31T00:18:48;100422.56;;;22.06;100.00
37368;BME280;23240;43.210;27.910;2023-07-31T00:21:14;100425.69;;;22.03;100.00
37368;BME280;23240;43.210;27.910;2023-07-31T00:23:39;100432.84;;;22.04;100.00
37368;BME280;23240;43.210;27.910;2023-07-31T00:26:04;100433.03;;;22.03;100.00
37368;BME280;23240;43.210;27.910;2023-07-31T00:28:29;100432.63;;;21.99;100.00
37368;BME280;23240;43.210;27.910;2023-07-31T00:30:55;100437.88;;;22.01;100.00
37368;BME280;23240;43.210;27.910;2023-07-31T00:33:20;100433.44;;;22.00;100.00
37368;BME280;23240;43.210;27.910;2023-07-31T00:35:45;100439.13;;;21.98;100.00
37368;BME280;23240;43.210;27.910;2023-07-31T00:38:11;100436.81;;;21.95;100.00
37368;BME280;23240;43.210;27.910;2023-07-31T00:40:36;100424.44;;;21.93;100.00
37368;BME280;23240;43.210;27.910;2023-07-31T00:43:02;100427.78;;;21.95;100.00
37368;BME280;23240;43.210;27.910;2023-07-31T00:45:28;100437.44;;;21.97;100.00
37368;BME280;23240;43.210;27.910;2023-07-31T00:47:53;100429.88;;;21.93;100.00
37368;BME280;23240;43.210;27.910;2023-07-31T00:50:19;100430.28;;;21.83;100.00
37368;BME280;23240;43.210;27.910;2023-07-31T00:52:44;100442.44;;;21.74;100.00
37368;BME280;23240;43.210;27.910;2023-07-31T00:55:09;100446.59;;;21.57;100.00
37368;BME280;23240;43.210;27.910;2023-07-31T00:57:35;100450.75;;;21.52;100.00
37368;BME280;23240;43.210;27.910;2023-07-31T01:00:01;100447.81;;;21.47;100.00
37368;BME280;23240;43.210;27.910;2023-07-31T01:02:28;100449.41;;;21.35;100.00
37368;BME280;23240;43.210;27.910;2023-07-31T01:04:54;100459.41;;;21.28;100.00
37368;BME280;23240;43.210;27.910;2023-07-31T01:07:24;100453.91;;;21.21;100.00
37368;BME280;23240;43.210;27.910;2023-07-31T01:12:26;100448.00;;;21.11;100.00
37368;BME280;23240;43.210;27.910;2023-07-31T01:17:26;100465.16;;;21.05;100.00
37368;BME280;23240;43.210;27.910;2023-07-31T01:19:52;100465.53;;;21.02;100.00
37368;BME280;23240;43.210;27.910;2023-07-31T01:27:34;100461.81;;;20.75;100.00
37368;BME280;23240;43.210;27.910;2023-07-31T01:30:05;100472.25;;;20.71;100.00
37368;BME280;23240;43.210;27.910;2023-07-31T01:32:39;100470.13;;;20.67;100.00
37368;BME280;23240;43.210;27.910;2023-07-31T01:35:05;100482.81;;;20.60;100.00
37368;BME280;23240;43.210;27.910;2023-07-31T01:37:31;100489.06;;;20.53;100.00
37368;BME280;23240;43.210;27.910;2023-07-31T01:39:56;100492.44;;;20.56;100.00
37368;BME280;23240;43.210;27.910;2023-07-31T01:42:22;100495.78;;;20.58;100.00
37368;BME280;23240;43.210;27.910;2023-07-31T01:44:47;100490.31;;;20.51;100.00
37368;BME280;23240;43.210;27.910;2023-07-31T01:47:12;100489.06;;;20.53;100.00
37368;BME280;23240;43.210;27.910;2023-07-31T01:49:37;100483.22;;;20.57;100.00
37368;BME280;23240;43.210;27.910;2023-07-31T01:52:03;100482.19;;;20.58;100.00
37368;BME280;23240;43.210;27.910;2023-07-31T01:54:28;100483.44;;;20.55;100.00
37368;BME280;23240;43.210;27.910;2023-07-31T01:56:53;100489.91;;;20.54;100.00
37368;BME280;23240;43.210;27.910;2023-07-31T01:59:19;100482.69;;;20.46;100.00
37368;BME280;23240;43.210;27.910;2023-07-31T02:01:44;100489.84;;;20.47;100.00
37368;BME280;23240;43.210;27.910;2023-07-31T02:04:09;100489.94;;;20.39;100.00
37368;BME280;23240;43.210;27.910;2023-07-31T02:06:35;100491.31;;;20.28;100.00
37368;BME280;23240;43.210;27.910;2023-07-31T02:09:00;100501.09;;;20.23;100.00
37368;BME280;23240;43.210;27.910;2023-07-31T02:11:25;100506.66;;;20.15;100.00
37368;BME280;23240;43.210;27.910;2023-07-31T02:13:50;100499.91;;;20.11;100.00
37368;BME280;23240;43.210;27.910;2023-07-31T02:16:16;100501.53;;;20.05;100.00
37368;BME280;23240;43.210;27.910;2023-07-31T02:18:41;100496.50;;;20.02;100.00
37368;BME280;23240;43.210;27.910;2023-07-31T02:21:06;100498.56;;;20.00;100.00
37368;BME280;23240;43.210;27.910;2023-07-31T02:23:32;100491.06;;;20.02;100.00
37368;BME280;23240;43.210;27.910;2023-07-31T02:25:57;100500.06;;;20.02;100.00
37368;BME280;23240;43.210;27.910;2023-07-31T02:28:22;100495.63;;;20.01;100.00
37368;BME280;23240;43.210;27.910;2023-07-31T02:30:49;100494.41;;;20.04;100.00
37368;BME280;23240;43.210;27.910;2023-07-31T02:33:15;100495.25;;;20.05;100.00
37368;BME280;23240;43.210;27.910;2023-07-31T02:35:41;100488.41;;;20.09;100.00
37368;BME280;23240;43.210;27.910;2023-07-31T02:38:06;100485.69;;;20.09;100.00
37368;BME280;23240;43.210;27.910;2023-07-31T02:40:32;100489.50;;;20.14;100.00
37368;BME280;23240;43.210;27.910;2023-07-31T02:42:57;100500.25;;;20.22;100.00
37368;BME280;23240;43.210;27.910;2023-07-31T02:45:23;100488.38;;;20.30;100.00
37368;BME280;23240;43.210;27.910;2023-07-31T02:47:48;100482.56;;;20.33;100.00
37368;BME280;23240;43.210;27.910;2023-07-31T02:50:13;100473.19;;;20.36;100.00
37368;BME280;23240;43.210;27.910;2023-07-31T02:52:39;100479.06;;;20.39;100.00
37368;BME280;23240;43.210;27.910;2023-07-31T02:55:04;100493.97;;;20.43;100.00
37368;BME280;23240;43.210;27.910;2023-07-31T02:57:29;100483.16;;;20.50;100.00
37368;BME280;23240;43.210;27.910;2023-07-31T02:59:55;100496.59;;;20.51;100.00
37368;BME280;23240;43.210;27.910;2023-07-31T03:02:20;100499.56;;;20.57;100.00
37368;BME280;23240;43.210;27.910;2023-07-31T03:04:45;100500.41;;;20.57;100.00
37368;BME280;23240;43.210;27.910;2023-07-31T03:07:11;100493.97;;;20.65;100.00
37368;BME280;23240;43.210;27.910;2023-07-31T03:09:36;100488.78;;;20.70;100.00
37368;BME280;23240;43.210;27.910;2023-07-31T03:12:01;100496.78;;;20.78;100.00
37368;BME280;23240;43.210;27.910;2023-07-31T03:14:27;100499.75;;;20.83;100.00
37368;BME280;23240;43.210;27.910;2023-07-31T03:16:52;100499.38;;;20.86;100.00
37368;BME280;23240;43.210;27.910;2023-07-31T03:19:17;100491.44;;;20.91;100.00
37368;BME280;23240;43.210;27.910;2023-07-31T03:21:42;100495.25;;;20.97;100.00
37368;BME280;23240;43.210;27.910;2023-07-31T03:24:08;100499.97;;;21.10;100.00
37368;BME280;23240;43.210;27.910;2023-07-31T03:26:33;100488.69;;;21.19;100.00
37368;BME280;23240;43.210;27.910;2023-07-31T03:28:59;100496.72;;;21.27;100.00
37368;BME280;23240;43.210;27.910;2023-07-31T03:31:24;100490.50;;;21.34;100.00
37368;BME280;23240;43.210;27.910;2023-07-31T03:33:49;100483.38;;;21.39;100.00
37368;BME280;23240;43.210;27.910;2023-07-31T03:36:14;100485.13;;;21.47;100.00
37368;BME280;23240;43.210;27.910;2023-07-31T03:38:40;100484.25;;;21.46;100.00
37368;BME280;23240;43.210;27.910;2023-07-31T03:41:05;100483.00;;;21.42;100.00
37368;BME280;23240;43.210;27.910;2023-07-31T03:43:31;100487.56;;;21.35;100.00
37368;BME280;23240;43.210;27.910;2023-07-31T03:45:58;100484.19;;;21.33;100.00
37368;BME280;23240;43.210;27.910;2023-07-31T03:48:24;100489.66;;;21.33;100.00
37368;BME280;23240;43.210;27.910;2023-07-31T03:50:49;100489.00;;;21.31;100.00
37368;BME280;23240;43.210;27.910;2023-07-31T03:53:14;100494.63;;;21.29;100.00
37368;BME280;23240;43.210;27.910;2023-07-31T03:55:40;100493.59;;;21.30;100.00
37368;BME280;23240;43.210;27.910;2023-07-31T03:58:05;100497.94;;;21.25;100.00
37368;BME280;23240;43.210;27.910;2023-07-31T04:00:30;100497.91;;;21.18;100.00
37368;BME280;23240;43.210;27.910;2023-07-31T04:02:56;100498.06;;;21.10;100.00
37368;BME280;23240;43.210;27.910;2023-07-31T04:05:21;100499.97;;;21.10;100.00
37368;BME280;23240;43.210;27.910;2023-07-31T04:07:46;100494.75;;;21.15;100.00
37368;BME280;23240;43.210;27.910;2023-07-31T04:10:11;100490.53;;;21.12;100.00
37368;BME280;23240;43.210;27.910;2023-07-31T04:12:37;100493.06;;;21.14;100.00
37368;BME280;23240;43.210;27.910;2023-07-31T04:15:02;100494.97;;;21.20;100.00
37368;BME280;23240;43.210;27.910;2023-07-31T04:17:27;100495.09;;;21.33;100.00
37368;BME280;23240;43.210;27.910;2023-07-31T04:19:53;100502.94;;;21.49;100.00
37368;BME280;23240;43.210;27.910;2023-07-31T04:22:18;100504.03;;;21.62;100.00
37368;BME280;23240;43.210;27.910;2023-07-31T04:24:43;100487.50;;;21.70;100.00
37368;BME280;23240;43.210;27.910;2023-07-31T04:27:09;100483.59;;;21.86;100.00
37368;BME280;23240;43.210;27.910;2023-07-31T04:29:34;100488.22;;;21.98;100.00
37368;BME280;23240;43.210;27.910;2023-07-31T04:31:59;100481.53;;;22.07;100.00
37368;BME280;23240;43.210;27.910;2023-07-31T04:34:24;100480.31;;;22.17;100.00
37368;BME280;23240;43.210;27.910;2023-07-31T04:36:50;100482.00;;;22.31;100.00
37368;BME280;23240;43.210;27.910;2023-07-31T04:39:15;100486.22;;;22.40;100.00
37368;BME280;23240;43.210;27.910;2023-07-31T04:41:40;100492.13;;;22.44;100.00
37368;BME280;23240;43.210;27.910;2023-07-31T04:44:06;100490.41;;;22.29;100.00
37368;BME280;23240;43.210;27.910;2023-07-31T04:46:31;100498.38;;;22.31;100.00
37368;BME280;23240;43.210;27.910;2023-07-31T04:48:56;100497.13;;;22.27;100.00
37368;BME280;23240;43.210;27.910;2023-07-31T04:51:22;100502.13;;;22.23;100.00
37368;BME280;23240;43.210;27.910;2023-07-31T04:53:48;100499.88;;;22.67;100.00
37368;BME280;23240;43.210;27.910;2023-07-31T04:56:13;100493.13;;;23.22;100.00
37368;BME280;23240;43.210;27.910;2023-07-31T04:58:40;100497.59;;;23.75;100.00
37368;BME280;23240;43.210;27.910;2023-07-31T05:01:05;100494.56;;;24.21;100.00
37368;BME280;23240;43.210;27.910;2023-07-31T05:03:31;100498.66;;;24.94;100.00
37368;BME280;23240;43.210;27.910;2023-07-31T05:05:56;100481.97;;;25.57;100.00
37368;BME280;23240;43.210;27.910;2023-07-31T05:08:21;100499.66;;;26.09;100.00
37368;BME280;23240;43.210;27.910;2023-07-31T05:10:47;100499.03;;;26.37;100.00
37368;BME280;23240;43.210;27.910;2023-07-31T05:13:12;100495.41;;;26.67;100.00
37368;BME280;23240;43.210;27.910;2023-07-31T05:15:37;100494.09;;;26.70;100.00
37368;BME280;23240;43.210;27.910;2023-07-31T05:18:03;100493.03;;;26.94;100.00
37368;BME280;23240;43.210;27.910;2023-07-31T05:20:28;100502.25;;;27.23;100.00
37368;BME280;23240;43.210;27.910;2023-07-31T05:22:53;100494.72;;;27.82;100.00
37368;BME280;23240;43.210;27.910;2023-07-31T05:25:19;100501.25;;;28.22;100.00
37368;BME280;23240;43.210;27.910;2023-07-31T05:27:44;100505.00;;;28.61;100.00
37368;BME280;23240;43.210;27.910;2023-07-31T05:30:10;100508.75;;;27.81;100.00
37368;BME280;23240;43.210;27.910;2023-07-31T05:32:35;100497.81;;;27.34;100.00
37368;BME280;23240;43.210;27.910;2023-07-31T05:35:00;100503.69;;;26.79;100.00
37368;BME280;23240;43.210;27.910;2023-07-31T05:37:26;100499.81;;;26.68;100.00
37368;BME280;23240;43.210;27.910;2023-07-31T05:39:51;100501.63;;;26.86;100.00
37368;BME280;23240;43.210;27.910;2023-07-31T05:42:17;100504.25;;;27.39;100.00
37368;BME280;23240;43.210;27.910;2023-07-31T05:44:42;100503.53;;;27.44;100.00
37368;BME280;23240;43.210;27.910;2023-07-31T05:47:08;100514.69;;;27.14;100.00
37368;BME280;23240;43.210;27.910;2023-07-31T05:49:33;100510.50;;;27.23;100.00
37368;BME280;23240;43.210;27.910;2023-07-31T05:51:59;100507.31;;;27.66;100.00
37368;BME280;23240;43.210;27.910;2023-07-31T05:54:24;100509.97;;;27.61;100.00
37368;BME280;23240;43.210;27.910;2023-07-31T05:56:49;100503.56;;;27.84;100.00
37368;BME280;23240;43.210;27.910;2023-07-31T05:59:15;100511.00;;;28.12;100.00
37368;BME280;23240;43.210;27.910;2023-07-31T06:01:41;100507.25;;;28.18;100.00
37368;BME280;23240;43.210;27.910;2023-07-31T06:04:06;100506.03;;;28.26;100.00
37368;BME280;23240;43.210;27.910;2023-07-31T06:06:31;100510.22;;;28.00;100.00
37368;BME280;23240;43.210;27.910;2023-07-31T06:08:57;100512.41;;;27.34;100.00
37368;BME280;23240;43.210;27.910;2023-07-31T06:11:22;100513.22;;;27.35;100.00
37368;BME280;23240;43.210;27.910;2023-07-31T06:13:48;100512.97;;;28.00;100.00
37368;BME280;23240;43.210;27.910;2023-07-31T06:16:14;100516.84;;;28.45;100.00
37368;BME280;23240;43.210;27.910;2023-07-31T06:18:40;100518.03;;;28.49;100.00
37368;BME280;23240;43.210;27.910;2023-07-31T06:21:05;100521.44;;;28.10;100.00
37368;BME280;23240;43.210;27.910;2023-07-31T06:23:31;100520.06;;;27.96;100.00
37368;BME280;23240;43.210;27.910;2023-07-31T06:25:56;100524.56;;;28.31;100.00
37368;BME280;23240;43.210;27.910;2023-07-31T06:28:26;100517.09;;;28.60;100.00
37368;BME280;23240;43.210;27.910;2023-07-31T06:30:52;100515.09;;;29.06;93.64
37368;BME280;23240;43.210;27.910;2023-07-31T06:33:17;100529.47;;;28.91;93.62
37368;BME280;23240;43.210;27.910;2023-07-31T06:35:42;100529.31;;;28.64;95.41
37368;BME280;23240;43.210;27.910;2023-07-31T06:38:08;100528.84;;;28.10;100.00
37368;BME280;23240;43.210;27.910;2023-07-31T06:40:34;100531.06;;;27.96;99.08
37368;BME280;23240;43.210;27.910;2023-07-31T06:42:59;100527.56;;;27.72;100.00
37368;BME280;23240;43.210;27.910;2023-07-31T06:45:24;100533.31;;;27.47;100.00
37368;BME280;23240;43.210;27.910;2023-07-31T06:47:50;100527.22;;;27.33;100.00
37368;BME280;23240;43.210;27.910;2023-07-31T06:50:15;100532.22;;;27.36;100.00
37368;BME280;23240;43.210;27.910;2023-07-31T06:52:40;100531.72;;;27.63;100.00
37368;BME280;23240;43.210;27.910;2023-07-31T06:55:21;100532.44;;;27.82;100.00
37368;BME280;23240;43.210;27.910;2023-07-31T06:57:47;100525.66;;;28.01;97.80
37368;BME280;23240;43.210;27.910;2023-07-31T07:00:13;100523.28;;;28.22;90.23
37368;BME280;23240;43.210;27.910;2023-07-31T07:02:39;100528.78;;;28.50;89.92
37368;BME280;23240;43.210;27.910;2023-07-31T07:05:04;100531.97;;;28.92;86.07
37368;BME280;23240;43.210;27.910;2023-07-31T07:07:30;100530.03;;;29.27;83.63
37368;BME280;23240;43.210;27.910;2023-07-31T07:09:55;100526.22;;;29.50;83.19
37368;BME280;23240;43.210;27.910;2023-07-31T07:12:20;100529.28;;;29.31;83.79
37368;BME280;23240;43.210;27.910;2023-07-31T07:14:46;100528.81;;;29.56;84.00
37368;BME280;23240;43.210;27.910;2023-07-31T07:17:12;100527.34;;;29.70;81.90
37368;BME280;23240;43.210;27.910;2023-07-31T07:19:40;100521.13;;;30.07;79.25
37368;BME280;23240;43.210;27.910;2023-07-31T07:22:05;100526.06;;;30.54;76.80
37368;BME280;23240;43.210;27.910;2023-07-31T07:24:31;100525.88;;;30.98;71.38
37368;BME280;23240;43.210;27.910;2023-07-31T07:26:56;100524.19;;;30.92;68.51
37368;BME280;23240;43.210;27.910;2023-07-31T07:29:21;100524.81;;;31.04;70.23
37368;BME280;23240;43.210;27.910;2023-07-31T07:31:47;100524.81;;;31.04;68.12
37368;BME280;23240;43.210;27.910;2023-07-31T07:34:12;100522.28;;;31.35;66.68
37368;BME280;23240;43.210;27.910;2023-07-31T07:36:37;100522.41;;;31.60;65.12
37368;BME280;23240;43.210;27.910;2023-07-31T07:39:03;100512.50;;;31.74;63.54
37368;BME280;23240;43.210;27.910;2023-07-31T07:41:28;100522.63;;;32.11;62.18
37368;BME280;23240;43.210;27.910;2023-07-31T07:43:53;100523.19;;;32.29;61.88
37368;BME280;23240;43.210;27.910;2023-07-31T07:46:18;100518.53;;;32.39;61.61
37368;BME280;23240;43.210;27.910;2023-07-31T07:48:44;100529.38;;;32.77;59.47
37368;BME280;23240;43.210;27.910;2023-07-31T07:51:09;100518.56;;;33.00;56.51
37368;BME280;23240;43.210;27.910;2023-07-31T07:53:34;100519.31;;;33.42;54.76
37368;BME280;23240;43.210;27.910;2023-07-31T07:56:00;100515.69;;;33.41;55.15
37368;BME280;23240;43.210;27.910;2023-07-31T07:58:25;100516.53;;;33.47;55.34
37368;BME280;23240;43.210;27.910;2023-07-31T08:00:51;100513.28;;;32.99;56.02
37368;BME280;23240;43.210;27.910;2023-07-31T08:03:16;100516.84;;;32.33;58.00
37368;BME280;23240;43.210;27.910;2023-07-31T08:05:42;100514.06;;;32.28;58.02
37368;BME280;23240;43.210;27.910;2023-07-31T08:08:07;100516.00;;;32.28;59.77
37368;BME280;23240;43.210;27.910;2023-07-31T08:10:32;100516.63;;;31.19;62.90
37368;BME280;23240;43.210;27.910;2023-07-31T08:12:58;100519.78;;;30.64;66.15
37368;BME280;23240;43.210;27.910;2023-07-31T08:15:23;100522.28;;;30.65;67.26
37368;BME280;23240;43.210;27.910;2023-07-31T08:17:48;100529.47;;;30.98;66.71
37368;BME280;23240;43.210;27.910;2023-07-31T08:20:14;100517.09;;;31.06;66.29
37368;BME280;23240;43.210;27.910;2023-07-31T08:22:39;100523.09;;;30.93;66.50
37368;BME280;23240;43.210;27.910;2023-07-31T08:25:05;100523.94;;;30.98;68.03
37368;BME280;23240;43.210;27.910;2023-07-31T08:27:31;100509.16;;;31.15;65.73
37368;BME280;23240;43.210;27.910;2023-07-31T08:29:57;100524.25;;;31.02;65.45
37368;BME280;23240;43.210;27.910;2023-07-31T08:32:22;100521.91;;;31.21;66.10
37368;BME280;23240;43.210;27.910;2023-07-31T08:34:48;100517.56;;;31.83;63.16
37368;BME280;23240;43.210;27.910;2023-07-31T08:37:14;100522.84;;;31.89;60.89
37368;BME280;23240;43.210;27.910;2023-07-31T08:39:39;100525.09;;;32.03;59.60
37368;BME280;23240;43.210;27.910;2023-07-31T08:42:07;100525.91;;;31.93;61.11
37368;BME280;23240;43.210;27.910;2023-07-31T08:44:32;100521.50;;;32.02;57.01
37368;BME280;23240;43.210;27.910;2023-07-31T08:46:59;100529.56;;;32.29;59.69
37368;BME280;23240;43.210;27.910;2023-07-31T08:49:24;100522.16;;;32.45;58.04
37368;BME280;23240;43.210;27.910;2023-07-31T08:51:50;100519.28;;;32.14;58.52
37368;BME280;23240;43.210;27.910;2023-07-31T08:54:17;100530.94;;;32.11;62.19
37368;BME280;23240;43.210;27.910;2023-07-31T08:56:42;100533.25;;;32.70;62.11
37368;BME280;23240;43.210;27.910;2023-07-31T08:59:08;100535.78;;;33.03;56.87
37368;BME280;23240;43.210;27.910;2023-07-31T09:01:36;100530.22;;;33.08;56.46
37368;BME280;23240;43.210;27.910;2023-07-31T09:04:05;100534.31;;;33.25;56.31
37368;BME280;23240;43.210;27.910;2023-07-31T09:06:32;100532.44;;;32.95;56.92
37368;BME280;23240;43.210;27.910;2023-07-31T09:08:58;100537.69;;;32.61;54.84
37368;BME280;23240;43.210;27.910;2023-07-31T09:11:24;100548.38;;;32.07;57.17
37368;BME280;23240;43.210;27.910;2023-07-31T09:13:50;100542.22;;;31.89;57.83
37368;BME280;23240;43.210;27.910;2023-07-31T09:16:15;100548.59;;;31.95;57.12
37368;BME280;23240;43.210;27.910;2023-07-31T09:18:56;100549.59;;;31.68;57.61
37368;BME280;23240;43.210;27.910;2023-07-31T09:21:22;100555.84;;;31.43;59.30
37368;BME280;23240;43.210;27.910;2023-07-31T09:23:47;100551.44;;;31.10;59.89
37368;BME280;23240;43.210;27.910;2023-07-31T09:26:46;100558.16;;;30.60;64.41
37368;BME280;23240;43.210;27.910;2023-07-31T09:29:05;100562.47;;;30.46;67.10
37368;BME280;23240;43.210;27.910;2023-07-31T09:33:58;100563.47;;;30.62;67.10
37368;BME280;23240;43.210;27.910;2023-07-31T09:36:23;100569.63;;;31.01;64.83
37368;BME280;23240;43.210;27.910;2023-07-31T09:38:49;100556.34;;;31.03;63.72
37368;BME280;23240;43.210;27.910;2023-07-31T09:41:14;100554.72;;;31.44;64.83
37368;BME280;23240;43.210;27.910;2023-07-31T09:43:39;100546.81;;;31.63;62.28
37368;BME280;23240;43.210;27.910;2023-07-31T09:46:04;100546.53;;;31.70;61.39
37368;BME280;23240;43.210;27.910;2023-07-31T09:48:38;100542.97;;;31.74;60.26
37368;BME280;23240;43.210;27.910;2023-07-31T09:51:04;100544.44;;;31.87;60.24
37368;BME280;23240;43.210;27.910;2023-07-31T09:53:30;100538.72;;;31.57;58.59
37368;BME280;23240;43.210;27.910;2023-07-31T09:55:56;100543.34;;;31.04;58.75
37368;BME280;23240;43.210;27.910;2023-07-31T09:58:23;100535.13;;;30.50;61.61
37368;BME280;23240;43.210;27.910;2023-07-31T10:00:48;100535.47;;;30.53;62.20
37368;BME280;23240;43.210;27.910;2023-07-31T10:03:13;100536.97;;;30.39;61.18
37368;BME280;23240;43.210;27.910;2023-07-31T10:05:42;100538.59;;;30.35;60.38
37368;BME280;23240;43.210;27.910;2023-07-31T10:08:10;100545.75;;;30.09;61.96
37368;BME280;23240;43.210;27.910;2023-07-31T10:10:37;100542.72;;;30.10;62.25
37368;BME280;23240;43.210;27.910;2023-07-31T10:13:02;100542.88;;;30.20;61.83
37368;BME280;23240;43.210;27.910;2023-07-31T10:15:29;100537.84;;;30.44;61.24
37368;BME280;23240;43.210;27.910;2023-07-31T10:17:55;100539.28;;;30.47;61.21
37368;BME280;23240;43.210;27.910;2023-07-31T10:20:20;100546.94;;;30.40;61.04
37368;BME280;23240;43.210;27.910;2023-07-31T10:22:46;100541.03;;;30.31;61.91
37368;BME280;23240;43.210;27.910;2023-07-31T10:25:12;100543.38;;;30.44;61.56
37368;BME280;23240;43.210;27.910;2023-07-31T10:27:40;100542.78;;;30.37;61.83
37368;BME280;23240;43.210;27.910;2023-07-31T10:30:08;100542.66;;;30.54;62.41
37368;BME280;23240;43.210;27.910;2023-07-31T10:32:33;100546.88;;;30.35;62.35
37368;BME280;23240;43.210;27.910;2023-07-31T10:35:00;100541.78;;;30.00;64.13
37368;BME280;23240;43.210;27.910;2023-07-31T10:37:28;100538.13;;;29.94;65.26
37368;BME280;23240;43.210;27.910;2023-07-31T10:40:00;100546.28;;;29.62;66.89
37368;BME280;23240;43.210;27.910;2023-07-31T10:42:29;100547.38;;;29.05;68.67
37368;BME280;23240;43.210;27.910;2023-07-31T10:44:58;100547.91;;;28.90;70.88
37368;BME280;23240;43.210;27.910;2023-07-31T10:47:24;100544.09;;;28.75;71.97
37368;BME280;23240;43.210;27.910;2023-07-31T10:49:50;100540.53;;;29.08;71.55
37368;BME280;23240;43.210;27.910;2023-07-31T10:52:19;100538.66;;;29.13;70.77
37368;BME280;23240;43.210;27.910;2023-07-31T10:54:47;100537.34;;;29.16;69.42
37368;BME280;23240;43.210;27.910;2023-07-31T10:57:19;100542.03;;;28.99;72.21
37368;BME280;23240;43.210;27.910;2023-07-31T10:59:45;100535.72;;;28.86;74.12
37368;BME280;23240;43.210;27.910;2023-07-31T11:02:22;100535.78;;;28.41;76.75
37368;BME280;23240;43.210;27.910;2023-07-31T11:05:05;100536.22;;;28.66;75.28
37368;BME280;23240;43.210;27.910;2023-07-31T11:07:45;100535.00;;;29.08;73.45
37368;BME280;23240;43.210;27.910;2023-07-31T11:10:11;100539.91;;;28.89;70.96
37368;BME280;23240;43.210;27.910;2023-07-31T11:12:36;100533.00;;;29.03;71.11
37368;BME280;23240;43.210;27.910;2023-07-31T11:15:02;100534.97;;;28.91;73.05
37368;BME280;23240;43.210;27.910;2023-07-31T11:17:28;100529.63;;;29.18;73.01
37368;BME280;23240;43.210;27.910;2023-07-31T11:19:53;100533.97;;;29.31;71.06
37368;BME280;23240;43.210;27.910;2023-07-31T11:22:19;100525.91;;;29.46;70.32
37368;BME280;23240;43.210;27.910;2023-07-31T11:24:44;100522.94;;;29.69;70.32
37368;BME280;23240;43.210;27.910;2023-07-31T11:27:09;100517.81;;;29.83;68.95
37368;BME280;23240;43.210;27.910;2023-07-31T11:29:35;100510.34;;;29.57;67.81
37368;BME280;23240;43.210;27.910;2023-07-31T11:32:00;100507.34;;;29.41;69.25
37368;BME280;23240;43.210;27.910;2023-07-31T11:34:25;100509.06;;;29.26;70.53
37368;BME280;23240;43.210;27.910;2023-07-31T11:36:54;100508.91;;;29.15;70.95
37368;BME280;23240;43.210;27.910;2023-07-31T11:39:20;100500.88;;;29.14;72.62
37368;BME280;23240;43.210;27.910;2023-07-31T11:41:45;100504.41;;;28.92;74.00
37368;BME280;23240;43.210;27.910;2023-07-31T11:44:11;100505.75;;;28.90;74.59
37368;BME280;23240;43.210;27.910;2023-07-31T11:46:36;100507.31;;;28.86;74.13
37368;BME280;23240;43.210;27.910;2023-07-31T11:49:01;100499.56;;;28.83;76.96
37368;BME280;23240;43.210;27.910;2023-07-31T11:51:27;100502.75;;;28.58;78.50
37368;BME280;23240;43.210;27.910;2023-07-31T11:53:55;100500.56;;;28.77;78.64
37368;BME280;23240;43.210;27.910;2023-07-31T11:56:21;100500.00;;;28.75;78.79
37368;BME280;23240;43.210;27.910;2023-07-31T11:58:52;100500.91;;;28.80;79.10
37368;BME280;23240;43.210;27.910;2023-07-31T12:01:18;100502.75;;;28.91;78.64
37368;BME280;23240;43.210;27.910;2023-07-31T12:03:45;100509.66;;;28.94;78.86
37368;BME280;23240;43.210;27.910;2023-07-31T12:06:10;100512.28;;;28.84;79.41
37368;BME280;23240;43.210;27.910;2023-07-31T12:08:36;100509.09;;;28.75;79.73
37368;BME280;23240;43.210;27.910;2023-07-31T12:11:05;100507.78;;;28.78;81.92
37368;BME280;23240;43.210;27.910;2023-07-31T12:13:30;100500.81;;;28.75;82.71
37368;BME280;23240;43.210;27.910;2023-07-31T12:15:57;100498.66;;;28.43;84.68
37368;BME280;23240;43.210;27.910;2023-07-31T12:18:23;100495.06;;;28.14;88.82
37368;BME280;23240;43.210;27.910;2023-07-31T12:20:49;100484.06;;;27.86;92.28
37368;BME280;23240;43.210;27.910;2023-07-31T12:23:19;100481.34;;;27.74;96.27
37368;BME280;23240;43.210;27.910;2023-07-31T12:26:14;100492.47;;;27.67;100.00
37368;BME280;23240;43.210;27.910;2023-07-31T12:28:41;100479.75;;;27.26;100.00
37368;BME280;23240;43.210;27.910;2023-07-31T12:31:17;100482.06;;;27.18;100.00
37368;BME280;23240;43.210;27.910;2023-07-31T12:33:43;100468.53;;;26.81;100.00
37368;BME280;23240;43.210;27.910;2023-07-31T12:36:12;100479.03;;;26.72;100.00
37368;BME280;23240;43.210;27.910;2023-07-31T12:38:38;100474.38;;;26.73;100.00
37368;BME280;23240;43.210;27.910;2023-07-31T12:41:04;100468.06;;;26.72;100.00
37368;BME280;23240;43.210;27.910;2023-07-31T12:43:31;100474.16;;;26.74;100.00